sensor_id;sensor_type;location;lat;lon;timestamp;pressure;altitude;pressure_sealevel;temperature;humidity
43420;BME280;29017;51.514;-0.178;2023-11-21T00:00:36;100982.38;;;12.92;97.67
43420;BME280;29017;51.514;-0.178;2023-11-21T00:03:04;100982.53;;;12.90;97.95
43420;BME280;29017;51.514;-0.178;2023-11-21T00:05:31;100976.25;;;12.91;97.73
43420;BME280;29017;51.514;-0.178;2023-11-21T00:07:58;100977.25;;;12.90;97.89
43420;BME280;29017;51.514;-0.178;2023-11-21T00:10:25;100979.25;;;12.88;98.18
43420;BME280;29017;51.514;-0.178;2023-11-21T00:12:52;100988.81;;;12.89;98.57
43420;BME280;29017;51.514;-0.178;2023-11-21T00:15:22;100987.00;;;12.90;98.75
43420;BME280;29017;51.514;-0.178;2023-11-21T00:17:48;100994.75;;;12.91;98.75
43420;BME280;29017;51.514;-0.178;2023-11-21T00:20:16;100993.75;;;12.92;98.71
43420;BME280;29017;51.514;-0.178;2023-11-21T00:22:43;101004.31;;;12.92;98.59
43420;BME280;29017;51.514;-0.178;2023-11-21T00:25:10;101004.31;;;12.92;98.55
43420;BME280;29017;51.514;-0.178;2023-11-21T00:27:37;101006.13;;;12.92;98.46
43420;BME280;29017;51.514;-0.178;2023-11-21T00:30:05;101009.13;;;12.89;99.25
43420;BME280;29017;51.514;-0.178;2023-11-21T00:32:33;101006.47;;;12.89;99.17
43420;BME280;29017;51.514;-0.178;2023-11-21T00:35:00;101011.56;;;12.90;99.48
43420;BME280;29017;51.514;-0.178;2023-11-21T00:37:25;101016.69;;;12.92;99.56
43420;BME280;29017;51.514;-0.178;2023-11-21T00:39:52;101018.03;;;12.96;100.00
43420;BME280;29017;51.514;-0.178;2023-11-21T00:42:19;101031.75;;;12.99;99.98
43420;BME280;29017;51.514;-0.178;2023-11-21T00:44:46;101025.28;;;13.02;99.12
43420;BME280;29017;51.514;-0.178;2023-11-21T00:47:13;101037.53;;;13.03;99.03
43420;BME280;29017;51.514;-0.178;2023-11-21T00:49:40;101037.19;;;13.06;99.31
43420;BME280;29017;51.514;-0.178;2023-11-21T00:52:07;101033.75;;;13.05;99.03
43420;BME280;29017;51.514;-0.178;2023-11-21T00:54:34;101050.91;;;13.09;98.76
43420;BME280;29017;51.514;-0.178;2023-11-21T00:57:01;101035.88;;;13.10;98.84
43420;BME280;29017;51.514;-0.178;2023-11-21T00:59:28;101041.03;;;13.11;98.94
43420;BME280;29017;51.514;-0.178;2023-11-21T01:01:55;101051.59;;;13.11;99.14
43420;BME280;29017;51.514;-0.178;2023-11-21T01:04:22;101050.44;;;13.14;98.78
43420;BME280;29017;51.514;-0.178;2023-11-21T01:06:49;101057.38;;;13.15;98.76
43420;BME280;29017;51.514;-0.178;2023-11-21T01:09:16;101063.31;;;13.17;99.24
43420;BME280;29017;51.514;-0.178;2023-11-21T01:11:45;101062.69;;;13.15;99.91
43420;BME280;29017;51.514;-0.178;2023-11-21T01:14:13;101062.69;;;13.15;100.00
43420;BME280;29017;51.514;-0.178;2023-11-21T01:16:40;101062.81;;;13.13;100.00
43420;BME280;29017;51.514;-0.178;2023-11-21T01:19:07;101064.50;;;13.14;100.00
43420;BME280;29017;51.514;-0.178;2023-11-21T01:21:34;101061.84;;;13.14;100.00
43420;BME280;29017;51.514;-0.178;2023-11-21T01:24:01;101060.88;;;13.15;100.00
43420;BME280;29017;51.514;-0.178;2023-11-21T01:26:29;101063.66;;;13.14;100.00
43420;BME280;29017;51.514;-0.178;2023-11-21T01:28:56;101066.31;;;13.14;100.00
43420;BME280;29017;51.514;-0.178;2023-11-21T01:31:23;101073.56;;;13.12;100.00
43420;BME280;29017;51.514;-0.178;2023-11-21T01:33:50;101078.00;;;13.11;100.00
43420;BME280;29017;51.514;-0.178;2023-11-21T01:36:20;101078.84;;;13.12;100.00
43420;BME280;29017;51.514;-0.178;2023-11-21T01:38:47;101083.28;;;13.11;100.00
43420;BME280;29017;51.514;-0.178;2023-11-21T01:41:14;101086.09;;;13.10;100.00
43420;BME280;29017;51.514;-0.178;2023-11-21T01:43:41;101098.28;;;13.11;100.00
43420;BME280;29017;51.514;-0.178;2023-11-21T01:46:11;101101.78;;;13.11;100.00
43420;BME280;29017;51.514;-0.178;2023-11-21T01:48:38;101111.16;;;13.06;100.00
43420;BME280;29017;51.514;-0.178;2023-11-21T01:51:05;101104.53;;;13.02;100.00
43420;BME280;29017;51.514;-0.178;2023-11-21T01:53:32;101107.53;;;12.99;100.00
43420;BME280;29017;51.514;-0.178;2023-11-21T01:55:59;101104.06;;;12.98;100.00
43420;BME280;29017;51.514;-0.178;2023-11-21T01:58:27;101107.38;;;13.00;100.00
43420;BME280;29017;51.514;-0.178;2023-11-21T02:00:54;101111.00;;;12.99;100.00
43420;BME280;29017;51.514;-0.178;2023-11-21T02:03:21;101121.72;;;12.98;100.00
43420;BME280;29017;51.514;-0.178;2023-11-21T02:05:48;101113.09;;;12.96;100.00
43420;BME280;29017;51.514;-0.178;2023-11-21T02:08:18;101122.03;;;12.95;100.00
43420;BME280;29017;51.514;-0.178;2023-11-21T02:10:46;101130.13;;;12.93;100.00
43420;BME280;29017;51.514;-0.178;2023-11-21T02:13:14;101127.31;;;12.95;100.00
43420;BME280;29017;51.514;-0.178;2023-11-21T02:15:41;101132.09;;;12.91;100.00
43420;BME280;29017;51.514;-0.178;2023-11-21T02:18:08;101129.78;;;12.88;100.00
43420;BME280;29017;51.514;-0.178;2023-11-21T02:20:38;101135.06;;;12.88;100.00
43420;BME280;29017;51.514;-0.178;2023-11-21T02:23:05;101134.22;;;12.88;100.00
43420;BME280;29017;51.514;-0.178;2023-11-21T02:25:35;101131.44;;;12.89;100.00
43420;BME280;29017;51.514;-0.178;2023-11-21T02:28:04;101134.06;;;12.89;100.00
43420;BME280;29017;51.514;-0.178;2023-11-21T02:30:31;101143.28;;;12.85;100.00
43420;BME280;29017;51.514;-0.178;2023-11-21T02:32:59;101146.75;;;12.85;100.00
43420;BME280;29017;51.514;-0.178;2023-11-21T02:35:26;101149.25;;;12.87;100.00
43420;BME280;29017;51.514;-0.178;2023-11-21T02:37:57;101150.91;;;12.88;100.00
43420;BME280;29017;51.514;-0.178;2023-11-21T02:40:24;101155.84;;;12.91;100.00
43420;BME280;29017;51.514;-0.178;2023-11-21T02:42:53;101161.13;;;12.91;100.00
43420;BME280;29017;51.514;-0.178;2023-11-21T02:45:20;101169.25;;;12.90;100.00
43420;BME280;29017;51.514;-0.178;2023-11-21T02:47:46;101166.41;;;12.91;100.00
43420;BME280;29017;51.514;-0.178;2023-11-21T02:50:13;101170.72;;;12.92;100.00
43420;BME280;29017;51.514;-0.178;2023-11-21T02:52:40;101165.13;;;12.95;100.00
43420;BME280;29017;51.514;-0.178;2023-11-21T02:55:07;101170.41;;;12.95;100.00
43420;BME280;29017;51.514;-0.178;2023-11-21T02:57:34;101177.50;;;12.95;100.00
43420;BME280;29017;51.514;-0.178;2023-11-21T03:00:04;101172.03;;;12.96;100.00
43420;BME280;29017;51.514;-0.178;2023-11-21T03:02:34;101184.28;;;12.97;100.00
43420;BME280;29017;51.514;-0.178;2023-11-21T03:05:09;101182.13;;;12.93;100.00
43420;BME280;29017;51.514;-0.178;2023-11-21T03:07:36;101185.44;;;12.95;100.00
43420;BME280;29017;51.514;-0.178;2023-11-21T03:10:04;101187.75;;;12.98;100.00
43420;BME280;29017;51.514;-0.178;2023-11-21T03:12:31;101199.81;;;13.00;100.00
43420;BME280;29017;51.514;-0.178;2023-11-21T03:15:00;101192.19;;;12.97;100.00
43420;BME280;29017;51.514;-0.178;2023-11-21T03:17:28;101199.81;;;13.00;100.00
43420;BME280;29017;51.514;-0.178;2023-11-21T03:19:55;101197.00;;;13.02;100.00
43420;BME280;29017;51.514;-0.178;2023-11-21T03:22:22;101206.09;;;12.99;100.00
43420;BME280;29017;51.514;-0.178;2023-11-21T03:24:51;101199.47;;;12.95;100.00
43420;BME280;29017;51.514;-0.178;2023-11-21T03:27:21;101208.03;;;12.97;100.00
43420;BME280;29017;51.514;-0.178;2023-11-21T03:29:48;101214.31;;;12.96;100.00
43420;BME280;29017;51.514;-0.178;2023-11-21T03:32:15;101205.88;;;12.93;100.00
43420;BME280;29017;51.514;-0.178;2023-11-21T03:37:12;101218.59;;;12.89;98.63
43420;BME280;29017;51.514;-0.178;2023-11-21T03:39:41;101227.00;;;12.84;99.05
43420;BME280;29017;51.514;-0.178;2023-11-21T03:42:08;101228.78;;;12.84;99.64
43420;BME280;29017;51.514;-0.178;2023-11-21T03:44:35;101240.84;;;12.86;99.92
43420;BME280;29017;51.514;-0.178;2023-11-21T03:47:02;101243.00;;;12.91;98.78
43420;BME280;29017;51.514;-0.178;2023-11-21T03:49:29;101240.69;;;12.88;98.02
43420;BME280;29017;51.514;-0.178;2023-11-21T03:51:56;101245.63;;;12.83;97.51
43420;BME280;29017;51.514;-0.178;2023-11-21T03:54:23;101242.28;;;12.81;98.20
43420;BME280;29017;51.514;-0.178;2023-11-21T03:56:50;101243.47;;;12.78;98.95
43420;BME280;29017;51.514;-0.178;2023-11-21T03:59:18;101253.03;;;12.79;99.22
43420;BME280;29017;51.514;-0.178;2023-11-21T04:01:45;101257.50;;;12.79;99.41
43420;BME280;29017;51.514;-0.178;2023-11-21T04:04:12;101260.13;;;12.79;99.82
43420;BME280;29017;51.514;-0.178;2023-11-21T04:06:42;101262.59;;;12.80;100.00
43420;BME280;29017;51.514;-0.178;2023-11-21T04:09:09;101264.41;;;12.80;100.00
43420;BME280;29017;51.514;-0.178;2023-11-21T04:11:35;101264.25;;;12.81;100.00
43420;BME280;29017;51.514;-0.178;2023-11-21T04:14:02;101270.69;;;12.79;100.00
43420;BME280;29017;51.514;-0.178;2023-11-21T04:16:28;101281.53;;;12.76;100.00
43420;BME280;29017;51.514;-0.178;2023-11-21T04:18:55;101283.34;;;12.75;100.00
43420;BME280;29017;51.514;-0.178;2023-11-21T04:21:23;101277.41;;;12.73;100.00
43420;BME280;29017;51.514;-0.178;2023-11-21T04:23:50;101283.16;;;12.69;100.00
43420;BME280;29017;51.514;-0.178;2023-11-21T04:26:17;101280.31;;;12.62;100.00
43420;BME280;29017;51.514;-0.178;2023-11-21T04:28:44;101286.56;;;12.61;100.00
43420;BME280;29017;51.514;-0.178;2023-11-21T04:31:11;101291.47;;;12.56;100.00
43420;BME280;29017;51.514;-0.178;2023-11-21T04:33:38;101296.25;;;12.53;100.00
43420;BME280;29017;51.514;-0.178;2023-11-21T04:36:05;101320.16;;;12.51;100.00
43420;BME280;29017;51.514;-0.178;2023-11-21T04:38:39;101314.34;;;12.48;99.99
43420;BME280;29017;51.514;-0.178;2023-11-21T04:41:08;101319.28;;;12.42;99.91
43420;BME280;29017;51.514;-0.178;2023-11-21T04:43:35;101326.66;;;12.39;100.00
43420;BME280;29017;51.514;-0.178;2023-11-21T04:46:02;101330.75;;;12.33;100.00
43420;BME280;29017;51.514;-0.178;2023-11-21T04:48:29;101339.50;;;12.34;100.00
43420;BME280;29017;51.514;-0.178;2023-11-21T04:50:56;101338.94;;;12.30;100.00
43420;BME280;29017;51.514;-0.178;2023-11-21T04:53:22;101344.53;;;12.27;100.00
43420;BME280;29017;51.514;-0.178;2023-11-21T04:55:49;101352.72;;;12.24;100.00
43420;BME280;29017;51.514;-0.178;2023-11-21T04:58:17;101347.63;;;12.23;100.00
43420;BME280;29017;51.514;-0.178;2023-11-21T05:00:44;101346.78;;;12.22;100.00
43420;BME280;29017;51.514;-0.178;2023-11-21T05:03:11;101355.22;;;12.26;100.00
43420;BME280;29017;51.514;-0.178;2023-11-21T05:05:38;101351.75;;;12.25;100.00
43420;BME280;29017;51.514;-0.178;2023-11-21T05:08:05;101352.72;;;12.24;100.00
43420;BME280;29017;51.514;-0.178;2023-11-21T05:10:32;101357.88;;;12.26;100.00
43420;BME280;29017;51.514;-0.178;2023-11-21T05:12:59;101356.06;;;12.26;100.00
43420;BME280;29017;51.514;-0.178;2023-11-21T05:15:26;101360.22;;;12.29;100.00
43420;BME280;29017;51.514;-0.178;2023-11-21T05:17:54;101357.72;;;12.27;100.00
43420;BME280;29017;51.514;-0.178;2023-11-21T05:20:22;101362.75;;;12.21;98.93
43420;BME280;29017;51.514;-0.178;2023-11-21T05:22:51;101373.47;;;12.19;98.41
43420;BME280;29017;51.514;-0.178;2023-11-21T05:25:20;101363.75;;;12.20;98.92
43420;BME280;29017;51.514;-0.178;2023-11-21T05:27:46;101350.88;;;12.17;98.33
43420;BME280;29017;51.514;-0.178;2023-11-21T05:30:16;101375.13;;;12.20;98.67
43420;BME280;29017;51.514;-0.178;2023-11-21T05:32:43;101370.16;;;12.17;97.88
43420;BME280;29017;51.514;-0.178;2023-11-21T05:35:10;101373.91;;;12.15;98.19
43420;BME280;29017;51.514;-0.178;2023-11-21T05:37:43;101384.47;;;12.15;97.56
43420;BME280;29017;51.514;-0.178;2023-11-21T05:40:10;101388.09;;;12.14;97.92
43420;BME280;29017;51.514;-0.178;2023-11-21T05:42:38;101387.78;;;12.17;98.23
43420;BME280;29017;51.514;-0.178;2023-11-21T05:45:06;101390.28;;;12.18;97.90
43420;BME280;29017;51.514;-0.178;2023-11-21T05:47:37;101400.97;;;12.17;97.57
43420;BME280;29017;51.514;-0.178;2023-11-21T05:50:08;101409.22;;;12.14;97.43
43420;BME280;29017;51.514;-0.178;2023-11-21T05:52:42;101404.72;;;12.14;97.25
43420;BME280;29017;51.514;-0.178;2023-11-21T05:55:10;101412.13;;;12.11;97.51
43420;BME280;29017;51.514;-0.178;2023-11-21T05:57:38;101435.59;;;12.14;97.91
43420;BME280;29017;51.514;-0.178;2023-11-21T06:00:06;101435.59;;;12.14;96.68
43420;BME280;29017;51.514;-0.178;2023-11-21T06:02:33;101430.31;;;12.14;96.51
43420;BME280;29017;51.514;-0.178;2023-11-21T06:05:00;101436.56;;;12.13;96.37
43420;BME280;29017;51.514;-0.178;2023-11-21T06:07:27;101438.22;;;12.14;95.72
43420;BME280;29017;51.514;-0.178;2023-11-21T06:09:57;101446.56;;;12.09;94.77
43420;BME280;29017;51.514;-0.178;2023-11-21T06:12:24;101445.59;;;12.10;95.01
43420;BME280;29017;51.514;-0.178;2023-11-21T06:14:54;101457.66;;;12.13;95.14
43420;BME280;29017;51.514;-0.178;2023-11-21T06:17:22;101454.34;;;12.11;94.24
43420;BME280;29017;51.514;-0.178;2023-11-21T06:19:52;101463.22;;;12.10;94.43
43420;BME280;29017;51.514;-0.178;2023-11-21T06:22:20;101471.00;;;12.11;94.61
43420;BME280;29017;51.514;-0.178;2023-11-21T06:24:47;101467.91;;;12.16;93.94
43420;BME280;29017;51.514;-0.178;2023-11-21T06:27:14;101471.81;;;12.12;93.90
43420;BME280;29017;51.514;-0.178;2023-11-21T06:29:43;101475.56;;;12.09;93.77
43420;BME280;29017;51.514;-0.178;2023-11-21T06:32:10;101472.28;;;12.07;93.45
43420;BME280;29017;51.514;-0.178;2023-11-21T06:34:37;101479.47;;;12.05;92.14
43420;BME280;29017;51.514;-0.178;2023-11-21T06:37:05;101485.72;;;12.04;92.50
43420;BME280;29017;51.514;-0.178;2023-11-21T06:39:32;101485.72;;;12.04;92.94
43420;BME280;29017;51.514;-0.178;2023-11-21T06:42:00;101492.00;;;12.03;93.12
43420;BME280;29017;51.514;-0.178;2023-11-21T06:44:27;101488.75;;;12.09;93.49
43420;BME280;29017;51.514;-0.178;2023-11-21T06:46:54;101506.13;;;12.12;93.63
43420;BME280;29017;51.514;-0.178;2023-11-21T06:49:22;101507.63;;;12.14;92.62
43420;BME280;29017;51.514;-0.178;2023-11-21T06:51:50;101508.06;;;12.10;92.80
43420;BME280;29017;51.514;-0.178;2023-11-21T06:54:17;101505.72;;;12.07;93.37
43420;BME280;29017;51.514;-0.178;2023-11-21T06:56:45;101507.97;;;12.02;93.00
43420;BME280;29017;51.514;-0.178;2023-11-21T06:59:12;101513.94;;;12.04;92.88
43420;BME280;29017;51.514;-0.178;2023-11-21T07:01:40;101520.31;;;12.01;92.50
43420;BME280;29017;51.514;-0.178;2023-11-21T07:04:08;101521.59;;;11.97;92.54
43420;BME280;29017;51.514;-0.178;2023-11-21T07:06:35;101531.59;;;11.93;92.64
43420;BME280;29017;51.514;-0.178;2023-11-21T07:09:05;101528.41;;;11.90;93.46
43420;BME280;29017;51.514;-0.178;2023-11-21T07:11:32;101528.56;;;11.88;93.28
43420;BME280;29017;51.514;-0.178;2023-11-21T07:13:59;101534.38;;;11.92;93.81
43420;BME280;29017;51.514;-0.178;2023-11-21T07:16:34;101532.00;;;11.89;92.71
43420;BME280;29017;51.514;-0.178;2023-11-21T07:19:04;101544.22;;;11.90;92.62
43420;BME280;29017;51.514;-0.178;2023-11-21T07:21:35;101555.63;;;11.90;92.50
43420;BME280;29017;51.514;-0.178;2023-11-21T07:24:02;101562.69;;;11.90;92.23
43420;BME280;29017;51.514;-0.178;2023-11-21T07:26:30;101556.59;;;11.89;93.15
43420;BME280;29017;51.514;-0.178;2023-11-21T07:28:57;101569.19;;;11.95;92.21
43420;BME280;29017;51.514;-0.178;2023-11-21T07:31:24;101571.31;;;11.92;91.75
43420;BME280;29017;51.514;-0.178;2023-11-21T07:33:52;101575.31;;;11.96;92.45
43420;BME280;29017;51.514;-0.178;2023-11-21T07:36:19;101577.94;;;11.96;92.54
43420;BME280;29017;51.514;-0.178;2023-11-21T07:38:46;101590.31;;;11.95;91.49
43420;BME280;29017;51.514;-0.178;2023-11-21T07:41:16;101581.72;;;11.93;91.81
43420;BME280;29017;51.514;-0.178;2023-11-21T07:43:56;101586.16;;;11.93;92.09
43420;BME280;29017;51.514;-0.178;2023-11-21T07:46:23;101599.78;;;11.88;92.39
43420;BME280;29017;51.514;-0.178;2023-11-21T07:48:56;101601.16;;;11.92;92.47
43420;BME280;29017;51.514;-0.178;2023-11-21T07:51:23;101612.38;;;11.94;92.75
43420;BME280;29017;51.514;-0.178;2023-11-21T07:53:51;101606.41;;;11.92;92.23
43420;BME280;29017;51.514;-0.178;2023-11-21T07:56:19;101610.44;;;11.96;92.37
43420;BME280;29017;51.514;-0.178;2023-11-21T07:58:46;101615.56;;;11.98;92.13
43420;BME280;29017;51.514;-0.178;2023-11-21T08:01:14;101622.34;;;12.00;91.66
43420;BME280;29017;51.514;-0.178;2023-11-21T08:03:40;101619.59;;;12.02;91.48
43420;BME280;29017;51.514;-0.178;2023-11-21T08:06:10;101626.78;;;12.00;91.44
43420;BME280;29017;51.514;-0.178;2023-11-21T08:08:38;101638.75;;;11.94;92.37
43420;BME280;29017;51.514;-0.178;2023-11-21T08:11:04;101635.00;;;11.97;93.29
43420;BME280;29017;51.514;-0.178;2023-11-21T08:13:35;101635.53;;;12.00;92.91
43420;BME280;29017;51.514;-0.178;2023-11-21T08:16:08;101643.88;;;11.96;92.78
43420;BME280;29017;51.514;-0.178;2023-11-21T08:18:35;101648.63;;;11.92;93.42
43420;BME280;29017;51.514;-0.178;2023-11-21T08:21:02;101652.34;;;11.90;93.95
43420;BME280;29017;51.514;-0.178;2023-11-21T08:23:31;101654.56;;;11.85;94.89
43420;BME280;29017;51.514;-0.178;2023-11-21T08:26:00;101649.03;;;11.88;95.99
43420;BME280;29017;51.514;-0.178;2023-11-21T08:28:29;101656.78;;;11.89;95.45
43420;BME280;29017;51.514;-0.178;2023-11-21T08:30:55;101662.91;;;11.90;95.30
43420;BME280;29017;51.514;-0.178;2023-11-21T08:33:22;101664.88;;;11.88;95.29
43420;BME280;29017;51.514;-0.178;2023-11-21T08:36:06;101661.94;;;11.91;95.49
43420;BME280;29017;51.514;-0.178;2023-11-21T08:38:34;101665.94;;;12.05;100.00
43420;BME280;29017;51.514;-0.178;2023-11-21T08:41:05;101677.59;;;12.02;98.83
43420;BME280;29017;51.514;-0.178;2023-11-21T08:43:35;101679.97;;;11.95;96.36
43420;BME280;29017;51.514;-0.178;2023-11-21T08:46:03;101684.56;;;11.93;95.50
43420;BME280;29017;51.514;-0.178;2023-11-21T08:48:36;101685.25;;;11.95;95.90
43420;BME280;29017;51.514;-0.178;2023-11-21T08:51:04;101681.94;;;11.93;95.56
43420;BME280;29017;51.514;-0.178;2023-11-21T08:53:32;101680.94;;;11.94;95.70
43420;BME280;29017;51.514;-0.178;2023-11-21T08:56:02;101691.34;;;11.96;96.13
43420;BME280;29017;51.514;-0.178;2023-11-21T08:58:31;101688.59;;;11.97;95.51
43420;BME280;29017;51.514;-0.178;2023-11-21T09:00:59;101685.13;;;11.97;95.90
43420;BME280;29017;51.514;-0.178;2023-11-21T09:03:26;101690.94;;;12.00;94.07
43420;BME280;29017;51.514;-0.178;2023-11-21T09:05:55;101697.16;;;11.99;94.32
43420;BME280;29017;51.514;-0.178;2023-11-21T09:08:22;101696.47;;;12.07;94.47
43420;BME280;29017;51.514;-0.178;2023-11-21T09:10:50;101708.53;;;12.10;94.48
43420;BME280;29017;51.514;-0.178;2023-11-21T09:13:19;101704.25;;;12.09;93.63
43420;BME280;29017;51.514;-0.178;2023-11-21T09:15:51;101704.41;;;12.07;94.03
43420;BME280;29017;51.514;-0.178;2023-11-21T09:18:19;101702.59;;;12.08;94.00
43420;BME280;29017;51.514;-0.178;2023-11-21T09:20:56;101708.53;;;12.10;94.50
43420;BME280;29017;51.514;-0.178;2023-11-21T09:23:24;101704.94;;;12.11;93.89
43420;BME280;29017;51.514;-0.178;2023-11-21T09:25:56;101710.91;;;12.13;92.50
43420;BME280;29017;51.514;-0.178;2023-11-21T09:28:27;101720.50;;;12.14;93.18
43420;BME280;29017;51.514;-0.178;2023-11-21T09:30:55;101732.69;;;12.15;93.28
43420;BME280;29017;51.514;-0.178;2023-11-21T09:33:23;101726.47;;;12.16;93.61
43420;BME280;29017;51.514;-0.178;2023-11-21T09:35:53;101733.81;;;12.22;93.09
43420;BME280;29017;51.514;-0.178;2023-11-21T09:38:25;101730.75;;;12.17;92.78
43420;BME280;29017;51.514;-0.178;2023-11-21T09:40:53;101739.63;;;12.25;92.97
43420;BME280;29017;51.514;-0.178;2023-11-21T09:43:21;101745.47;;;12.29;93.24
43420;BME280;29017;51.514;-0.178;2023-11-21T09:45:56;101748.66;;;12.32;93.28
43420;BME280;29017;51.514;-0.178;2023-11-21T09:48:26;101748.38;;;12.35;92.91
43420;BME280;29017;51.514;-0.178;2023-11-21T09:50:53;101756.56;;;12.42;92.18
43420;BME280;29017;51.514;-0.178;2023-11-21T09:56:05;101768.09;;;12.41;91.84
43420;BME280;29017;51.514;-0.178;2023-11-21T09:58:33;101759.63;;;12.37;92.50
43420;BME280;29017;51.514;-0.178;2023-11-21T10:01:01;101763.66;;;12.32;92.66
43420;BME280;29017;51.514;-0.178;2023-11-21T10:03:30;101772.41;;;12.32;93.21
43420;BME280;29017;51.514;-0.178;2023-11-21T10:06:02;101770.44;;;12.34;93.87
43420;BME280;29017;51.514;-0.178;2023-11-21T10:08:33;101778.09;;;12.37;94.12
43420;BME280;29017;51.514;-0.178;2023-11-21T10:11:16;101781.72;;;12.36;94.50
43420;BME280;29017;51.514;-0.178;2023-11-21T10:13:44;101784.88;;;12.40;95.25
43420;BME280;29017;51.514;-0.178;2023-11-21T10:16:14;101781.97;;;12.43;95.17
43420;BME280;29017;51.514;-0.178;2023-11-21T10:18:46;101788.09;;;12.43;95.26
43420;BME280;29017;51.514;-0.178;2023-11-21T10:21:17;101784.34;;;12.46;95.28
43420;BME280;29017;51.514;-0.178;2023-11-21T10:23:46;101792.00;;;12.49;95.35
43420;BME280;29017;51.514;-0.178;2023-11-21T10:26:13;101790.16;;;12.50;95.63
43420;BME280;29017;51.514;-0.178;2023-11-21T10:28:57;101797.81;;;12.53;95.56
43420;BME280;29017;51.514;-0.178;2023-11-21T10:31:26;101790.84;;;12.52;95.12
43420;BME280;29017;51.514;-0.178;2023-11-21T10:33:57;101793.91;;;12.57;95.75
43420;BME280;29017;51.514;-0.178;2023-11-21T10:36:36;101796.94;;;12.62;96.12
43420;BME280;29017;51.514;-0.178;2023-11-21T10:39:04;101795.84;;;12.64;95.96
43420;BME280;29017;51.514;-0.178;2023-11-21T10:41:31;101793.88;;;12.66;96.59
43420;BME280;29017;51.514;-0.178;2023-11-21T10:43:59;101800.09;;;12.75;96.51
43420;BME280;29017;51.514;-0.178;2023-11-21T10:46:27;101802.47;;;12.78;96.37
43420;BME280;29017;51.514;-0.178;2023-11-21T10:48:53;101798.69;;;12.80;95.73
43420;BME280;29017;51.514;-0.178;2023-11-21T10:51:23;101803.16;;;12.80;95.84
43420;BME280;29017;51.514;-0.178;2023-11-21T10:53:52;101807.47;;;12.81;95.63
43420;BME280;29017;51.514;-0.178;2023-11-21T10:56:24;101803.84;;;12.82;95.71
43420;BME280;29017;51.514;-0.178;2023-11-21T10:58:52;101809.44;;;12.79;95.25
43420;BME280;29017;51.514;-0.178;2023-11-21T11:01:26;101803.03;;;12.72;95.32
43420;BME280;29017;51.514;-0.178;2023-11-21T11:03:56;101808.47;;;12.70;95.65
43420;BME280;29017;51.514;-0.178;2023-11-21T11:06:24;101805.81;;;12.70;96.09
43420;BME280;29017;51.514;-0.178;2023-11-21T11:09:12;101803.44;;;12.77;96.10
43420;BME280;29017;51.514;-0.178;2023-11-21T11:11:40;101811.06;;;12.80;96.20
43420;BME280;29017;51.514;-0.178;2023-11-21T11:14:09;101803.84;;;12.82;96.14
43420;BME280;29017;51.514;-0.178;2023-11-21T11:16:38;101815.78;;;12.86;95.90
43420;BME280;29017;51.514;-0.178;2023-11-21T11:19:47;101804.56;;;12.84;95.92
43420;BME280;29017;51.514;-0.178;2023-11-21T11:22:26;101811.47;;;12.85;96.00
43420;BME280;29017;51.514;-0.178;2023-11-21T11:33:21;101817.34;;;12.79;97.67
43420;BME280;29017;51.514;-0.178;2023-11-21T11:35:57;101817.19;;;12.80;97.95
43420;BME280;29017;51.514;-0.178;2023-11-21T11:38:31;101819.41;;;12.85;98.05
43420;BME280;29017;51.514;-0.178;2023-11-21T11:41:01;101833.19;;;12.89;97.19
43420;BME280;29017;51.514;-0.178;2023-11-21T11:43:32;101825.25;;;12.89;97.07
43420;BME280;29017;51.514;-0.178;2023-11-21T11:46:02;101823.88;;;12.84;97.38
43420;BME280;29017;51.514;-0.178;2023-11-21T11:48:34;101823.31;;;12.81;97.89
43420;BME280;29017;51.514;-0.178;2023-11-21T11:53:41;101841.53;;;12.84;98.73
43420;BME280;29017;51.514;-0.178;2023-11-21T11:56:38;101842.19;;;12.86;98.89
43420;BME280;29017;51.514;-0.178;2023-11-21T11:59:02;101836.38;;;12.82;99.01
43420;BME280;29017;51.514;-0.178;2023-11-21T12:01:34;101838.19;;;12.82;99.14
43420;BME280;29017;51.514;-0.178;2023-11-21T12:06:41;101840.28;;;12.88;98.20
43420;BME280;29017;51.514;-0.178;2023-11-21T12:09:17;101846.22;;;12.90;98.42
43420;BME280;29017;51.514;-0.178;2023-11-21T12:11:46;101846.38;;;12.89;98.59
43420;BME280;29017;51.514;-0.178;2023-11-21T12:14:14;101847.06;;;12.91;98.14
43420;BME280;29017;51.514;-0.178;2023-11-21T12:16:48;101856.78;;;12.90;98.12
43420;BME280;29017;51.514;-0.178;2023-11-21T12:19:16;101858.03;;;12.96;98.00
43420;BME280;29017;51.514;-0.178;2023-11-21T12:21:48;101863.31;;;12.96;98.35
43420;BME280;29017;51.514;-0.178;2023-11-21T12:24:16;101860.97;;;12.93;98.73
43420;BME280;29017;51.514;-0.178;2023-11-21T12:26:43;101871.09;;;12.97;99.26
43420;BME280;29017;51.514;-0.178;2023-11-21T12:29:16;101873.31;;;13.02;99.60
43420;BME280;29017;51.514;-0.178;2023-11-21T12:31:48;101877.34;;;13.06;98.48
43420;BME280;29017;51.514;-0.178;2023-11-21T12:34:16;101878.59;;;13.11;98.44
43420;BME280;29017;51.514;-0.178;2023-11-21T12:36:45;101880.81;;;13.16;98.60
43420;BME280;29017;51.514;-0.178;2023-11-21T12:41:41;101887.63;;;13.18;98.97
43420;BME280;29017;51.514;-0.178;2023-11-21T12:44:09;101896.81;;;13.24;99.22
43420;BME280;29017;51.514;-0.178;2023-11-21T12:46:40;101899.84;;;13.29;99.18
43420;BME280;29017;51.514;-0.178;2023-11-21T12:49:07;101903.16;;;13.31;98.94
43420;BME280;29017;51.514;-0.178;2023-11-21T12:51:34;101908.75;;;13.28;99.52
43420;BME280;29017;51.514;-0.178;2023-11-21T12:54:03;101909.88;;;13.25;99.85
43420;BME280;29017;51.514;-0.178;2023-11-21T12:56:31;101905.72;;;13.23;100.00
43420;BME280;29017;51.514;-0.178;2023-11-21T12:58:59;101908.06;;;13.26;100.00
43420;BME280;29017;51.514;-0.178;2023-11-21T13:01:26;101910.13;;;13.32;100.00
43420;BME280;29017;51.514;-0.178;2023-11-21T13:03:56;101916.56;;;13.30;100.00
43420;BME280;29017;51.514;-0.178;2023-11-21T13:06:23;101911.69;;;13.25;100.00